sensor_id;sensor_type;location;lat;lon;timestamp;pressure;altitude;pressure_sealevel;temperature;humidity
68988;BME280;56038;46.080;11.116;2023-04-27T00:00:40;99293.22;;;12.21;57.76
68988;BME280;56038;46.080;11.116;2023-04-27T00:05:50;99295.84;;;12.21;59.01
68988;BME280;56038;46.080;11.116;2023-04-27T00:11:01;99286.25;;;12.03;58.42
68988;BME280;56038;46.080;11.116;2023-04-27T00:16:03;99281.66;;;12.08;58.17
68988;BME280;56038;46.080;11.116;2023-04-27T00:21:05;99288.38;;;11.94;58.81
68988;BME280;56038;46.080;11.116;2023-04-27T00:26:08;99306.44;;;12.01;58.51
68988;BME280;56038;46.080;11.116;2023-04-27T00:31:10;99305.44;;;11.84;59.66
68988;BME280;56038;46.080;11.116;2023-04-27T00:36:11;99317.47;;;11.88;59.19
68988;BME280;56038;46.080;11.116;2023-04-27T00:41:14;99304.38;;;11.88;59.14
68988;BME280;56038;46.080;11.116;2023-04-27T00:46:16;99307.16;;;11.85;59.81
68988;BME280;56038;46.080;11.116;2023-04-27T00:51:19;99307.78;;;11.90;59.40
68988;BME280;56038;46.080;11.116;2023-04-27T00:56:22;99312.72;;;11.96;59.15
68988;BME280;56038;46.080;11.116;2023-04-27T01:01:24;99311.00;;;11.95;59.48
68988;BME280;56038;46.080;11.116;2023-04-27T01:06:26;99306.69;;;11.94;59.42
68988;BME280;56038;46.080;11.116;2023-04-27T01:11:31;99292.41;;;11.83;59.95
68988;BME280;56038;46.080;11.116;2023-04-27T01:16:33;99300.44;;;11.78;59.98
68988;BME280;56038;46.080;11.116;2023-04-27T01:21:36;99309.59;;;11.69;60.64
68988;BME280;56038;46.080;11.116;2023-04-27T01:26:40;99314.78;;;11.51;61.63
68988;BME280;56038;46.080;11.116;2023-04-27T01:31:41;99317.13;;;11.57;61.27
68988;BME280;56038;46.080;11.116;2023-04-27T01:36:43;99321.84;;;11.49;62.07
68988;BME280;56038;46.080;11.116;2023-04-27T01:41:46;99321.22;;;11.44;62.05
68988;BME280;56038;46.080;11.116;2023-04-27T01:46:48;99330.91;;;11.42;62.27
68988;BME280;56038;46.080;11.116;2023-04-27T01:51:50;99323.19;;;11.38;62.36
68988;BME280;56038;46.080;11.116;2023-04-27T01:56:53;99328.53;;;11.35;62.58
68988;BME280;56038;46.080;11.116;2023-04-27T02:01:54;99329.34;;;11.37;62.60
68988;BME280;56038;46.080;11.116;2023-04-27T02:06:56;99335.88;;;11.27;62.68
68988;BME280;56038;46.080;11.116;2023-04-27T02:11:59;99332.63;;;11.22;62.68
68988;BME280;56038;46.080;11.116;2023-04-27T02:17:01;99333.16;;;11.10;63.90
68988;BME280;56038;46.080;11.116;2023-04-27T02:22:03;99341.84;;;11.10;63.42
68988;BME280;56038;46.080;11.116;2023-04-27T02:27:06;99344.25;;;11.15;63.26
68988;BME280;56038;46.080;11.116;2023-04-27T02:32:08;99357.44;;;11.12;63.62
68988;BME280;56038;46.080;11.116;2023-04-27T02:37:10;99362.88;;;11.07;63.85
68988;BME280;56038;46.080;11.116;2023-04-27T02:42:13;99368.03;;;11.09;64.17
68988;BME280;56038;46.080;11.116;2023-04-27T02:47:15;99381.25;;;11.06;63.84
68988;BME280;56038;46.080;11.116;2023-04-27T02:52:17;99375.09;;;11.07;63.67
68988;BME280;56038;46.080;11.116;2023-04-27T02:57:21;99375.06;;;10.87;64.10
68988;BME280;56038;46.080;11.116;2023-04-27T03:02:23;99384.38;;;10.94;63.51
68988;BME280;56038;46.080;11.116;2023-04-27T03:07:24;99387.63;;;10.99;63.78
68988;BME280;56038;46.080;11.116;2023-04-27T03:12:27;99385.94;;;10.98;64.16
68988;BME280;56038;46.080;11.116;2023-04-27T03:17:29;99388.69;;;10.95;64.12
68988;BME280;56038;46.080;11.116;2023-04-27T03:22:31;99392.72;;;11.02;64.06
68988;BME280;56038;46.080;11.116;2023-04-27T03:27:34;99390.88;;;11.04;64.50
68988;BME280;56038;46.080;11.116;2023-04-27T03:32:36;99394.41;;;11.03;64.66
68988;BME280;56038;46.080;11.116;2023-04-27T03:37:37;99408.53;;;10.99;64.50
68988;BME280;56038;46.080;11.116;2023-04-27T03:42:40;99408.94;;;10.90;64.61
68988;BME280;56038;46.080;11.116;2023-04-27T03:47:42;99409.66;;;10.93;65.30
68988;BME280;56038;46.080;11.116;2023-04-27T03:52:44;99406.88;;;10.76;66.05
68988;BME280;56038;46.080;11.116;2023-04-27T03:57:47;99399.75;;;10.79;65.28
68988;BME280;56038;46.080;11.116;2023-04-27T04:02:48;99397.22;;;10.78;66.11
68988;BME280;56038;46.080;11.116;2023-04-27T04:07:52;99387.59;;;10.78;65.52
68988;BME280;56038;46.080;11.116;2023-04-27T04:12:55;99390.22;;;10.78;66.20
68988;BME280;56038;46.080;11.116;2023-04-27T04:17:57;99386.88;;;10.75;66.49
68988;BME280;56038;46.080;11.116;2023-04-27T04:22:58;99390.56;;;10.69;67.96
68988;BME280;56038;46.080;11.116;2023-04-27T04:28:01;99407.72;;;10.55;67.32
68988;BME280;56038;46.080;11.116;2023-04-27T04:33:03;99413.31;;;10.67;66.56
68988;BME280;56038;46.080;11.116;2023-04-27T04:38:05;99410.56;;;10.70;66.38
68988;BME280;56038;46.080;11.116;2023-04-27T04:43:09;99425.09;;;10.77;65.93
68988;BME280;56038;46.080;11.116;2023-04-27T04:48:13;99430.97;;;10.83;65.40
68988;BME280;56038;46.080;11.116;2023-04-27T04:53:14;99450.84;;;10.87;65.15
68988;BME280;56038;46.080;11.116;2023-04-27T04:58:17;99455.22;;;10.86;65.76
68988;BME280;56038;46.080;11.116;2023-04-27T05:03:19;99462.97;;;10.89;65.01
68988;BME280;56038;46.080;11.116;2023-04-27T05:08:21;99470.97;;;10.85;66.35
68988;BME280;56038;46.080;11.116;2023-04-27T05:13:24;99478.25;;;10.76;66.64
68988;BME280;56038;46.080;11.116;2023-04-27T05:18:26;99485.97;;;10.79;66.26
68988;BME280;56038;46.080;11.116;2023-04-27T05:23:27;99486.56;;;10.86;66.11
68988;BME280;56038;46.080;11.116;2023-04-27T05:28:30;99488.19;;;10.90;66.13
68988;BME280;56038;46.080;11.116;2023-04-27T05:33:32;99487.25;;;10.91;66.81
68988;BME280;56038;46.080;11.116;2023-04-27T05:38:34;99498.19;;;11.01;66.52
68988;BME280;56038;46.080;11.116;2023-04-27T05:43:40;99496.75;;;11.36;66.21
68988;BME280;56038;46.080;11.116;2023-04-27T05:48:42;99490.84;;;11.53;66.00
68988;BME280;56038;46.080;11.116;2023-04-27T05:53:43;99488.41;;;11.48;65.58
68988;BME280;56038;46.080;11.116;2023-04-27T05:58:47;99491.22;;;11.64;64.95
68988;BME280;56038;46.080;11.116;2023-04-27T06:03:48;99486.91;;;11.83;64.48
68988;BME280;56038;46.080;11.116;2023-04-27T06:08:50;99491.47;;;11.78;64.71
68988;BME280;56038;46.080;11.116;2023-04-27T06:13:53;99495.63;;;12.04;63.84
68988;BME280;56038;46.080;11.116;2023-04-27T06:18:54;99487.44;;;12.30;63.00
68988;BME280;56038;46.080;11.116;2023-04-27T06:23:56;99491.38;;;12.78;61.68
68988;BME280;56038;46.080;11.116;2023-04-27T06:28:59;99476.56;;;13.13;60.17
68988;BME280;56038;46.080;11.116;2023-04-27T06:34:02;99480.59;;;13.38;60.01
68988;BME280;56038;46.080;11.116;2023-04-27T06:39:04;99484.72;;;13.61;59.50
68988;BME280;56038;46.080;11.116;2023-04-27T06:44:07;99488.97;;;13.63;58.99
68988;BME280;56038;46.080;11.116;2023-04-27T06:49:09;99492.88;;;13.72;58.85
68988;BME280;56038;46.080;11.116;2023-04-27T06:54:10;99489.94;;;13.95;57.60
68988;BME280;56038;46.080;11.116;2023-04-27T06:59:13;99484.47;;;14.16;56.94
68988;BME280;56038;46.080;11.116;2023-04-27T07:04:15;99481.47;;;14.39;56.19
68988;BME280;56038;46.080;11.116;2023-04-27T07:09:17;99494.13;;;14.48;55.96
68988;BME280;56038;46.080;11.116;2023-04-27T07:14:20;99486.19;;;14.65;55.56
68988;BME280;56038;46.080;11.116;2023-04-27T07:19:22;99483.06;;;14.59;55.66
68988;BME280;56038;46.080;11.116;2023-04-27T07:24:24;99480.44;;;14.59;55.70
68988;BME280;56038;46.080;11.116;2023-04-27T07:29:27;99476.28;;;14.71;55.54
68988;BME280;56038;46.080;11.116;2023-04-27T07:34:29;99478.66;;;14.75;55.44
68988;BME280;56038;46.080;11.116;2023-04-27T07:39:31;99473.88;;;14.82;55.10
68988;BME280;56038;46.080;11.116;2023-04-27T07:44:34;99473.28;;;14.77;54.92
68988;BME280;56038;46.080;11.116;2023-04-27T07:49:36;99467.63;;;14.84;54.58
68988;BME280;56038;46.080;11.116;2023-04-27T07:54:39;99474.63;;;15.15;54.42
68988;BME280;56038;46.080;11.116;2023-04-27T07:59:42;99466.53;;;15.34;53.60
68988;BME280;56038;46.080;11.116;2023-04-27T08:04:45;99472.84;;;15.76;53.00
68988;BME280;56038;46.080;11.116;2023-04-27T08:09:49;99472.97;;;16.03;52.03
68988;BME280;56038;46.080;11.116;2023-04-27T08:14:52;99466.25;;;16.54;51.06
68988;BME280;56038;46.080;11.116;2023-04-27T08:19:54;99461.47;;;16.75;50.18
68988;BME280;56038;46.080;11.116;2023-04-27T08:24:55;99455.88;;;16.65;50.25
68988;BME280;56038;46.080;11.116;2023-04-27T08:29:58;99455.97;;;16.64;50.01
68988;BME280;56038;46.080;11.116;2023-04-27T08:35:00;99459.47;;;16.79;49.72
68988;BME280;56038;46.080;11.116;2023-04-27T08:40:04;99448.88;;;16.93;49.03
68988;BME280;56038;46.080;11.116;2023-04-27T08:45:09;99440.81;;;17.09;48.49
68988;BME280;56038;46.080;11.116;2023-04-27T08:50:11;99430.88;;;17.52;47.54
68988;BME280;56038;46.080;11.116;2023-04-27T08:55:13;99438.78;;;17.52;45.75
68988;BME280;56038;46.080;11.116;2023-04-27T09:00:17;99435.41;;;17.10;45.44
68988;BME280;56038;46.080;11.116;2023-04-27T09:05:23;99427.28;;;17.53;45.84
68988;BME280;56038;46.080;11.116;2023-04-27T09:10:27;99421.19;;;17.90;45.03
68988;BME280;56038;46.080;11.116;2023-04-27T09:15:40;99417.13;;;18.72;41.58
68988;BME280;56038;46.080;11.116;2023-04-27T09:20:42;99420.69;;;19.43;41.98
68988;BME280;56038;46.080;11.116;2023-04-27T09:25:44;99408.50;;;19.76;39.42
68988;BME280;56038;46.080;11.116;2023-04-27T09:30:52;99409.94;;;20.13;38.98
68988;BME280;56038;46.080;11.116;2023-04-27T09:35:56;99396.94;;;20.21;38.30
68988;BME280;56038;46.080;11.116;2023-04-27T09:40:58;99389.31;;;21.14;37.81
68988;BME280;56038;46.080;11.116;2023-04-27T09:46:03;99388.84;;;21.83;35.67
68988;BME280;56038;46.080;11.116;2023-04-27T09:51:05;99376.25;;;21.85;34.95
68988;BME280;56038;46.080;11.116;2023-04-27T09:56:22;99372.34;;;21.89;31.76
68988;BME280;56038;46.080;11.116;2023-04-27T10:01:36;99367.97;;;21.78;33.58
68988;BME280;56038;46.080;11.116;2023-04-27T10:06:51;99356.94;;;22.83;31.08
68988;BME280;56038;46.080;11.116;2023-04-27T10:11:55;99345.00;;;23.25;33.17
68988;BME280;56038;46.080;11.116;2023-04-27T10:16:58;99337.28;;;22.64;32.57
68988;BME280;56038;46.080;11.116;2023-04-27T10:22:00;99337.00;;;23.25;32.61
68988;BME280;56038;46.080;11.116;2023-04-27T10:27:03;99323.84;;;22.76;30.88
68988;BME280;56038;46.080;11.116;2023-04-27T10:32:12;99317.66;;;22.46;30.90
68988;BME280;56038;46.080;11.116;2023-04-27T10:37:14;99326.00;;;23.67;30.97
68988;BME280;56038;46.080;11.116;2023-04-27T10:42:26;99317.47;;;23.91;28.35
68988;BME280;56038;46.080;11.116;2023-04-27T10:47:38;99311.06;;;23.74;28.45
68988;BME280;56038;46.080;11.116;2023-04-27T10:52:40;99291.19;;;24.77;29.35
68988;BME280;56038;46.080;11.116;2023-04-27T10:57:47;99294.78;;;24.32;27.07
68988;BME280;56038;46.080;11.116;2023-04-27T11:02:51;99293.34;;;24.38;28.60
68988;BME280;56038;46.080;11.116;2023-04-27T11:08:03;99283.47;;;25.35;25.83
68988;BME280;56038;46.080;11.116;2023-04-27T11:13:09;99274.28;;;25.98;26.04
68988;BME280;56038;46.080;11.116;2023-04-27T11:18:13;99271.63;;;25.38;27.32
68988;BME280;56038;46.080;11.116;2023-04-27T11:23:22;99267.84;;;25.49;27.05
68988;BME280;56038;46.080;11.116;2023-04-27T11:28:24;99267.72;;;24.63;25.32
68988;BME280;56038;46.080;11.116;2023-04-27T11:33:27;99249.06;;;24.17;27.64
68988;BME280;56038;46.080;11.116;2023-04-27T11:38:32;99250.53;;;23.84;26.33
68988;BME280;56038;46.080;11.116;2023-04-27T11:43:35;99251.63;;;23.82;27.53
68988;BME280;56038;46.080;11.116;2023-04-27T11:48:38;99234.50;;;24.30;27.08
68988;BME280;56038;46.080;11.116;2023-04-27T11:53:40;99223.00;;;24.65;27.20
68988;BME280;56038;46.080;11.116;2023-04-27T11:58:42;99235.03;;;24.69;25.83
68988;BME280;56038;46.080;11.116;2023-04-27T12:03:46;99227.03;;;24.15;25.59
68988;BME280;56038;46.080;11.116;2023-04-27T12:08:48;99222.56;;;24.06;26.55
68988;BME280;56038;46.080;11.116;2023-04-27T12:13:50;99225.66;;;23.56;26.21
68988;BME280;56038;46.080;11.116;2023-04-27T12:18:54;99222.38;;;23.72;26.58
68988;BME280;56038;46.080;11.116;2023-04-27T12:23:55;99222.97;;;23.56;26.84
68988;BME280;56038;46.080;11.116;2023-04-27T12:28:57;99217.38;;;23.59;27.02
68988;BME280;56038;46.080;11.116;2023-04-27T12:34:00;99207.03;;;24.02;27.14
68988;BME280;56038;46.080;11.116;2023-04-27T12:39:12;99222.66;;;23.69;26.37
68988;BME280;56038;46.080;11.116;2023-04-27T12:44:16;99216.03;;;23.73;26.91
68988;BME280;56038;46.080;11.116;2023-04-27T12:49:19;99214.84;;;23.48;26.89
68988;BME280;56038;46.080;11.116;2023-04-27T12:54:21;99211.63;;;23.54;26.85
68988;BME280;56038;46.080;11.116;2023-04-27T12:59:23;99213.63;;;23.43;27.09
68988;BME280;56038;46.080;11.116;2023-04-27T13:04:27;99220.41;;;23.37;26.32
68988;BME280;56038;46.080;11.116;2023-04-27T13:09:30;99213.81;;;22.94;26.06
68988;BME280;56038;46.080;11.116;2023-04-27T13:14:31;99217.38;;;23.22;26.31
68988;BME280;56038;46.080;11.116;2023-04-27T13:19:34;99201.72;;;23.74;25.62
68988;BME280;56038;46.080;11.116;2023-04-27T13:24:36;99205.84;;;24.49;25.29
68988;BME280;56038;46.080;11.116;2023-04-27T13:29:38;99204.88;;;24.33;24.92
68988;BME280;56038;46.080;11.116;2023-04-27T13:34:41;99205.13;;;24.91;25.02
68988;BME280;56038;46.080;11.116;2023-04-27T13:39:42;99210.41;;;24.39;24.23
68988;BME280;56038;46.080;11.116;2023-04-27T13:44:44;99215.09;;;24.10;24.33
68988;BME280;56038;46.080;11.116;2023-04-27T13:49:47;99218.66;;;24.46;24.45
68988;BME280;56038;46.080;11.116;2023-04-27T13:54:49;99212.53;;;24.54;24.42
68988;BME280;56038;46.080;11.116;2023-04-27T13:59:51;99218.22;;;24.33;24.95
68988;BME280;56038;46.080;11.116;2023-04-27T14:04:54;99197.16;;;23.84;25.67
68988;BME280;56038;46.080;11.116;2023-04-27T14:09:56;99199.75;;;23.94;25.74
68988;BME280;56038;46.080;11.116;2023-04-27T14:14:58;99207.69;;;24.31;25.78
68988;BME280;56038;46.080;11.116;2023-04-27T14:20:01;99184.91;;;24.27;24.75
68988;BME280;56038;46.080;11.116;2023-04-27T14:25:04;99188.97;;;24.49;25.59
68988;BME280;56038;46.080;11.116;2023-04-27T14:30:07;99199.78;;;25.09;24.64
68988;BME280;56038;46.080;11.116;2023-04-27T14:35:10;99198.56;;;25.72;24.30
68988;BME280;56038;46.080;11.116;2023-04-27T14:40:12;99197.69;;;26.05;24.51
68988;BME280;56038;46.080;11.116;2023-04-27T14:45:14;99199.44;;;25.72;24.69
68988;BME280;56038;46.080;11.116;2023-04-27T14:50:19;99190.78;;;25.44;24.03
68988;BME280;56038;46.080;11.116;2023-04-27T14:55:21;99191.59;;;25.11;24.68
68988;BME280;56038;46.080;11.116;2023-04-27T15:00:24;99184.28;;;25.13;24.73
68988;BME280;56038;46.080;11.116;2023-04-27T15:05:37;99190.63;;;25.12;24.38
68988;BME280;56038;46.080;11.116;2023-04-27T15:10:46;99188.22;;;25.08;24.81
68988;BME280;56038;46.080;11.116;2023-04-27T15:15:47;99191.81;;;25.17;25.03
68988;BME280;56038;46.080;11.116;2023-04-27T15:20:52;99192.06;;;25.06;24.36
68988;BME280;56038;46.080;11.116;2023-04-27T15:25:55;99178.00;;;24.78;23.96
68988;BME280;56038;46.080;11.116;2023-04-27T15:30:57;99179.13;;;24.49;25.30
68988;BME280;56038;46.080;11.116;2023-04-27T15:36:00;99180.19;;;24.21;25.63
68988;BME280;56038;46.080;11.116;2023-04-27T15:41:02;99178.00;;;24.34;26.09
68988;BME280;56038;46.080;11.116;2023-04-27T15:46:04;99180.19;;;23.85;25.97
68988;BME280;56038;46.080;11.116;2023-04-27T15:51:07;99181.19;;;23.47;26.75
68988;BME280;56038;46.080;11.116;2023-04-27T15:56:09;99178.66;;;23.18;26.96
68988;BME280;56038;46.080;11.116;2023-04-27T16:01:10;99172.16;;;22.93;27.35
68988;BME280;56038;46.080;11.116;2023-04-27T16:06:29;99194.88;;;22.88;27.60
68988;BME280;56038;46.080;11.116;2023-04-27T16:11:32;99184.22;;;22.78;27.73
68988;BME280;56038;46.080;11.116;2023-04-27T16:16:34;99181.50;;;22.41;28.27
68988;BME280;56038;46.080;11.116;2023-04-27T16:21:37;99178.34;;;21.88;29.05
68988;BME280;56038;46.080;11.116;2023-04-27T16:26:39;99195.25;;;21.77;28.99
68988;BME280;56038;46.080;11.116;2023-04-27T16:31:40;99203.22;;;21.77;29.33
68988;BME280;56038;46.080;11.116;2023-04-27T16:36:45;99204.69;;;21.50;29.75
68988;BME280;56038;46.080;11.116;2023-04-27T16:41:56;99205.97;;;21.46;29.90
68988;BME280;56038;46.080;11.116;2023-04-27T16:47:12;99219.75;;;21.31;30.20
68988;BME280;56038;46.080;11.116;2023-04-27T16:52:15;99214.81;;;21.05;30.60
68988;BME280;56038;46.080;11.116;2023-04-27T16:57:17;99214.84;;;20.84;31.16
68988;BME280;56038;46.080;11.116;2023-04-27T17:02:19;99222.06;;;20.82;31.26
68988;BME280;56038;46.080;11.116;2023-04-27T17:07:22;99223.09;;;20.49;31.97
68988;BME280;56038;46.080;11.116;2023-04-27T17:12:24;99228.31;;;20.08;32.54
68988;BME280;56038;46.080;11.116;2023-04-27T17:17:26;99244.41;;;19.72;33.33
68988;BME280;56038;46.080;11.116;2023-04-27T17:22:29;99248.59;;;19.19;34.35
68988;BME280;56038;46.080;11.116;2023-04-27T17:27:32;99253.81;;;18.85;34.86
68988;BME280;56038;46.080;11.116;2023-04-27T17:32:34;99247.31;;;18.78;34.88
68988;BME280;56038;46.080;11.116;2023-04-27T17:37:37;99254.53;;;18.52;35.83
68988;BME280;56038;46.080;11.116;2023-04-27T17:42:38;99276.94;;;18.36;35.90
68988;BME280;56038;46.080;11.116;2023-04-27T17:47:41;99262.47;;;18.05;37.08
68988;BME280;56038;46.080;11.116;2023-04-27T17:52:46;99274.88;;;17.91;37.32
68988;BME280;56038;46.080;11.116;2023-04-27T17:57:50;99277.41;;;17.93;38.26
68988;BME280;56038;46.080;11.116;2023-04-27T18:02:53;99274.38;;;17.86;37.39
68988;BME280;56038;46.080;11.116;2023-04-27T18:07:56;99284.00;;;17.62;39.49
68988;BME280;56038;46.080;11.116;2023-04-27T18:12:57;99299.44;;;17.55;38.58
68988;BME280;56038;46.080;11.116;2023-04-27T18:17:59;99298.81;;;17.52;38.40
68988;BME280;56038;46.080;11.116;2023-04-27T18:23:02;99304.19;;;17.50;38.44
68988;BME280;56038;46.080;11.116;2023-04-27T18:28:04;99314.34;;;17.44;38.47
68988;BME280;56038;46.080;11.116;2023-04-27T18:33:06;99310.84;;;17.43;38.53
68988;BME280;56038;46.080;11.116;2023-04-27T18:38:09;99328.94;;;17.36;38.79
68988;BME280;56038;46.080;11.116;2023-04-27T18:43:10;99337.06;;;17.21;39.17
68988;BME280;56038;46.080;11.116;2023-04-27T18:48:12;99349.41;;;17.20;39.49
68988;BME280;56038;46.080;11.116;2023-04-27T18:53:15;99357.41;;;17.06;39.79
68988;BME280;56038;46.080;11.116;2023-04-27T18:58:17;99369.28;;;16.99;39.96
68988;BME280;56038;46.080;11.116;2023-04-27T19:03:19;99386.59;;;16.90;41.81
68988;BME280;56038;46.080;11.116;2023-04-27T19:08:21;99403.22;;;16.78;40.62
68988;BME280;56038;46.080;11.116;2023-04-27T19:13:23;99415.69;;;16.62;41.51
68988;BME280;56038;46.080;11.116;2023-04-27T19:18:25;99427.28;;;16.59;40.90
68988;BME280;56038;46.080;11.116;2023-04-27T19:29:10;99441.22;;;16.47;42.44
68988;BME280;56038;46.080;11.116;2023-04-27T19:40:14;99450.66;;;16.37;42.21
68988;BME280;56038;46.080;11.116;2023-04-27T19:45:17;99466.13;;;16.29;41.97
68988;BME280;56038;46.080;11.116;2023-04-27T19:50:20;99476.66;;;16.29;42.04
68988;BME280;56038;46.080;11.116;2023-04-27T19:55:23;99478.59;;;16.25;42.16
68988;BME280;56038;46.080;11.116;2023-04-27T20:00:25;99481.72;;;16.17;42.18
68988;BME280;56038;46.080;11.116;2023-04-27T20:05:45;99484.75;;;16.11;44.03
68988;BME280;56038;46.080;11.116;2023-04-27T20:10:50;99490.78;;;16.13;42.46
68988;BME280;56038;46.080;11.116;2023-04-27T20:15:52;99487.38;;;16.11;42.57
68988;BME280;56038;46.080;11.116;2023-04-27T20:20:53;99490.03;;;16.11;42.49
68988;BME280;56038;46.080;11.116;2023-04-27T20:25:56;99508.25;;;16.00;43.41
68988;BME280;56038;46.080;11.116;2023-04-27T20:30:58;99508.63;;;15.80;43.93
68988;BME280;56038;46.080;11.116;2023-04-27T20:36:00;99512.44;;;15.74;44.21
68988;BME280;56038;46.080;11.116;2023-04-27T20:41:04;99507.75;;;15.49;45.47
68988;BME280;56038;46.080;11.116;2023-04-27T20:46:06;99515.81;;;15.46;45.44
68988;BME280;56038;46.080;11.116;2023-04-27T20:51:08;99527.88;;;15.50;45.41
68988;BME280;56038;46.080;11.116;2023-04-27T20:56:11;99529.50;;;15.37;46.06
68988;BME280;56038;46.080;11.116;2023-04-27T21:01:13;99535.78;;;15.35;45.90
68988;BME280;56038;46.080;11.116;2023-04-27T21:06:23;99537.50;;;15.20;47.23
68988;BME280;56038;46.080;11.116;2023-04-27T21:11:54;99527.66;;;15.23;48.39
68988;BME280;56038;46.080;11.116;2023-04-27T21:16:56;99517.59;;;14.84;48.36
68988;BME280;56038;46.080;11.116;2023-04-27T21:21:58;99526.25;;;14.86;48.04
68988;BME280;56038;46.080;11.116;2023-04-27T21:27:02;99528.97;;;14.85;48.02
68988;BME280;56038;46.080;11.116;2023-04-27T21:32:04;99530.47;;;14.73;48.64
68988;BME280;56038;46.080;11.116;2023-04-27T21:37:06;99558.59;;;14.55;49.31
68988;BME280;56038;46.080;11.116;2023-04-27T21:42:09;99558.25;;;14.46;49.92
68988;BME280;56038;46.080;11.116;2023-04-27T21:47:11;99563.41;;;14.47;49.64
68988;BME280;56038;46.080;11.116;2023-04-27T21:52:13;99556.19;;;14.51;49.82
68988;BME280;56038;46.080;11.116;2023-04-27T21:57:17;99553.41;;;14.21;53.81
68988;BME280;56038;46.080;11.116;2023-04-27T22:02:19;99557.94;;;14.17;52.74
68988;BME280;56038;46.080;11.116;2023-04-27T22:07:22;99570.94;;;14.20;52.63
68988;BME280;56038;46.080;11.116;2023-04-27T22:12:27;99571.84;;;14.19;55.05
68988;BME280;56038;46.080;11.116;2023-04-27T22:17:28;99584.38;;;14.14;53.23
68988;BME280;56038;46.080;11.116;2023-04-27T22:22:30;99583.94;;;14.06;53.10
68988;BME280;56038;46.080;11.116;2023-04-27T22:27:33;99586.16;;;13.96;53.42
68988;BME280;56038;46.080;11.116;2023-04-27T22:32:34;99592.59;;;13.91;53.33
68988;BME280;56038;46.080;11.116;2023-04-27T22:37:36;99601.53;;;13.87;53.19
68988;BME280;56038;46.080;11.116;2023-04-27T22:42:39;99602.28;;;13.71;54.15
68988;BME280;56038;46.080;11.116;2023-04-27T22:47:41;99618.69;;;13.76;53.99
68988;BME280;56038;46.080;11.116;2023-04-27T22:52:43;99608.38;;;13.72;54.21
68988;BME280;56038;46.080;11.116;2023-04-27T22:57:47;99614.09;;;13.63;54.57
68988;BME280;56038;46.080;11.116;2023-04-27T23:02:49;99622.72;;;13.47;56.43
68988;BME280;56038;46.080;11.116;2023-04-27T23:07:50;99624.25;;;13.52;55.67
68988;BME280;56038;46.080;11.116;2023-04-27T23:12:53;99627.47;;;13.58;55.28
68988;BME280;56038;46.080;11.116;2023-04-27T23:17:56;99643.63;;;13.49;56.96
68988;BME280;56038;46.080;11.116;2023-04-27T23:22:57;99645.75;;;13.41;57.16
68988;BME280;56038;46.080;11.116;2023-04-27T23:28:00;99643.41;;;13.54;55.74
68988;BME280;56038;46.080;11.116;2023-04-27T23:33:02;99641.97;;;13.65;55.18
68988;BME280;56038;46.080;11.116;2023-04-27T23:38:04;99641.13;;;13.65;55.39
68988;BME280;56038;46.080;11.116;2023-04-27T23:43:07;99629.06;;;13.61;55.48
68988;BME280;56038;46.080;11.116;2023-04-27T23:48:08;99630.81;;;13.43;56.26
68988;BME280;56038;46.080;11.116;2023-04-27T23:53:10;99629.47;;;13.34;58.59
68988;BME280;56038;46.080;11.116;2023-04-27T23:58:13;99629.84;;;13.27;57.27
